Time;durP1;ratioP1;P1;durP2;ratioP2;P2;SDS_P1;SDS_P2;PMS_P1;PMS_P2;Temp;Humidity;BMP_temperature;BMP_pressure;BME280_temperature;BME280_humidity;BME280_pressure;Samples;Min_cycle;Max_cycle;Signal;HPM_P1;HPM_P2
2024/02/05 00:00:17;;;;;;;;;;;;;;;19.54;45.26;100333.81;2082346;28;6083;-59
2024/02/05 00:01:19;;;;;;;;;;;;;;;19.53;45.26;100330.19;2082368;28;2447;-61
2024/02/05 00:02:20;;;;;;;;;;;;;;;19.53;45.14;100335.94;2081648;28;2544;-61
2024/02/05 00:03:21;;;;;;;;;;;;;;;19.53;45.22;100333.06;2080267;28;2226;-61
2024/02/05 00:04:23;;;;;;;;;;;;;;;19.52;45.25;100323.00;2080433;28;2074;-61
2024/02/05 00:05:25;;;;;;;;;;;;;;;19.52;45.29;100328.72;2081806;28;2102;-61
2024/02/05 00:06:27;;;;;;;;;;;;;;;19.53;45.24;100329.47;2080929;28;2351;-61
2024/02/05 00:07:28;;;;;;;;;;;;;;;19.51;45.29;100327.25;2081233;28;2143;-61
2024/02/05 00:08:29;;;;;;;;;;;;;;;19.52;45.29;100323.00;2081681;28;2313;-61
2024/02/05 00:09:31;;;;;;;;;;;;;;;19.51;45.35;100327.25;2082717;28;2420;-61
2024/02/05 00:10:33;;;;;;;;;;;;;;;19.52;45.33;100320.13;2082649;28;2355;-60
2024/02/05 00:11:34;;;;;;;;;;;;;;;19.51;45.31;100318.63;2081407;28;2489;-60
2024/02/05 00:12:36;;;;;;;;;;;;;;;19.51;45.33;100327.25;2081250;28;2180;-61
2024/02/05 00:13:37;;;;;;;;;;;;;;;19.51;45.36;100317.91;2085095;28;1629;-61
2024/02/05 00:14:39;;;;;;;;;;;;;;;19.51;45.36;100320.75;2085442;28;2221;-61
2024/02/05 00:15:40;;;;;;;;;;;;;;;19.51;45.34;100315.75;2079987;28;2446;-60
2024/02/05 00:16:41;;;;;;;;;;;;;;;19.51;45.44;100312.16;2081686;28;2117;-60
2024/02/05 00:17:43;;;;;;;;;;;;;;;19.49;45.30;100312.78;2082447;28;2420;-61
2024/02/05 00:18:45;;;;;;;;;;;;;;;19.49;45.30;100300.56;2082624;28;2381;-61
2024/02/05 00:19:46;;;;;;;;;;;;;;;19.49;45.46;100297.69;2083451;28;2162;-61
2024/02/05 00:20:48;;;;;;;;;;;;;;;19.49;45.37;100298.44;2081011;28;2422;-61
2024/02/05 00:21:49;;;;;;;;;;;;;;;19.48;45.40;100305.59;2081363;28;2098;-61
2024/02/05 00:22:51;;;;;;;;;;;;;;;19.49;45.36;100297.69;2078707;28;2193;-61
2024/02/05 00:23:52;;;;;;;;;;;;;;;19.47;45.39;100298.38;2081087;28;2164;-62
2024/02/05 00:24:53;;;;;;;;;;;;;;;19.48;45.41;100305.59;2080338;28;2394;-61
2024/02/05 00:25:55;;;;;;;;;;;;;;;19.48;45.48;100299.09;2082143;28;2217;-61
2024/02/05 00:26:56;;;;;;;;;;;;;;;19.46;45.41;100306.22;2078023;28;2411;-61
2024/02/05 00:27:57;;;;;;;;;;;;;;;19.48;45.45;100294.09;2085479;28;2049;-61
2024/02/05 00:28:59;;;;;;;;;;;;;;;19.48;45.47;100299.09;2086004;28;1954;-61
2024/02/05 00:30:00;;;;;;;;;;;;;;;19.48;45.46;100299.84;2083137;28;2067;-61
2024/02/05 00:31:02;;;;;;;;;;;;;;;19.47;45.42;100304.13;2081569;28;6624;-61
2024/02/05 00:32:04;;;;;;;;;;;;;;;19.45;45.45;100296.16;2081548;28;2199;-61
2024/02/05 00:33:08;;;;;;;;;;;;;;;19.45;45.41;100301.16;2085741;28;1890;-61
2024/02/05 00:34:10;;;;;;;;;;;;;;;19.46;45.51;100296.88;2082667;28;2395;-61
2024/02/05 00:35:12;;;;;;;;;;;;;;;19.46;45.59;100291.16;2082313;28;2202;-61
2024/02/05 00:36:14;;;;;;;;;;;;;;;19.46;45.43;100299.75;2080618;28;2423;-60
2024/02/05 00:37:15;;;;;;;;;;;;;;;19.44;45.44;100291.06;2082454;28;2496;-61
2024/02/05 00:38:17;;;;;;;;;;;;;;;19.45;45.45;100296.16;2081725;28;2445;-61
2024/02/05 00:39:18;;;;;;;;;;;;;;;19.45;45.44;100292.56;2082618;28;2215;-61
2024/02/05 00:40:20;;;;;;;;;;;;;;;19.45;45.47;100295.41;2082281;28;2402;-62
2024/02/05 00:41:22;;;;;;;;;;;;;;;19.45;45.42;100301.91;2081872;28;2160;-61
2024/02/05 00:42:23;;;;;;;;;;;;;;;19.45;45.61;100289.69;2085599;28;2102;-61
2024/02/05 00:43:26;;;;;;;;;;;;;;;19.45;45.43;100301.16;2086232;28;1735;-60
2024/02/05 00:44:27;;;;;;;;;;;;;;;19.45;45.47;100295.41;2084281;28;1652;-61
2024/02/05 00:45:29;;;;;;;;;;;;;;;19.44;45.42;100288.19;2078792;28;2367;-61
2024/02/05 00:46:30;;;;;;;;;;;;;;;19.45;45.66;100292.56;2081887;28;2539;-61
2024/02/05 00:47:31;;;;;;;;;;;;;;;19.44;45.48;100291.06;2078518;28;2479;-61
2024/02/05 00:48:33;;;;;;;;;;;;;;;19.43;45.52;100292.47;2081025;28;2366;-61
2024/02/05 00:49:34;;;;;;;;;;;;;;;19.45;45.62;100301.16;2083480;28;2171;-59
2024/02/05 00:50:41;;;;;;;;;;;;;;;19.43;45.50;100293.19;2081471;28;2121;-61
2024/02/05 00:51:42;;;;;;;;;;;;;;;19.43;45.58;100293.19;2082368;28;2359;-61
2024/02/05 00:52:44;;;;;;;;;;;;;;;19.42;45.61;100303.22;2081657;28;2159;-61
2024/02/05 00:53:46;;;;;;;;;;;;;;;19.43;45.59;100295.34;2078115;28;2165;-61
2024/02/05 00:54:47;;;;;;;;;;;;;;;19.43;45.60;100301.81;2081290;28;2271;-61
2024/02/05 00:55:49;;;;;;;;;;;;;;;19.42;45.72;100297.47;2079576;28;2138;-60
2024/02/05 00:56:50;;;;;;;;;;;;;;;19.42;45.67;100291.72;2082504;28;2130;-61
2024/02/05 00:57:52;;;;;;;;;;;;;;;19.43;45.66;100298.22;2082860;28;2163;-61
2024/02/05 00:58:54;;;;;;;;;;;;;;;19.42;45.69;100293.84;2083467;28;1995;-61
2024/02/05 00:59:55;;;;;;;;;;;;;;;19.43;45.60;100298.22;2080208;28;2422;-61
2024/02/05 01:00:57;;;;;;;;;;;;;;;19.42;45.62;100291.72;2082506;28;6148;-60
2024/02/05 01:01:58;;;;;;;;;;;;;;;19.42;45.63;100296.72;2079961;28;2149;-61
2024/02/05 01:03:00;;;;;;;;;;;;;;;19.41;45.51;100284.50;2081880;28;2089;-60
2024/02/05 01:04:02;;;;;;;;;;;;;;;19.41;45.65;100286.63;2081237;28;2170;-61
2024/02/05 01:05:05;;;;;;;;;;;;;;;19.41;45.68;100283.75;2079895;28;2101;-62
2024/02/05 01:06:06;;;;;;;;;;;;;;;19.41;45.66;100289.50;2078844;28;2446;-61
2024/02/05 01:07:08;;;;;;;;;;;;;;;19.42;45.71;100285.22;2081319;28;2183;-60
2024/02/05 01:08:10;;;;;;;;;;;;;;;19.41;45.68;100290.25;2082246;28;2359;-61
2024/02/05 01:09:12;;;;;;;;;;;;;;;19.40;45.72;100276.53;2083735;28;2343;-61
2024/02/05 01:10:14;;;;;;;;;;;;;;;19.40;45.55;100290.88;2080749;28;2106;-62
2024/02/05 01:11:15;;;;;;;;;;;;;;;19.40;45.85;100291.66;2081172;28;2407;-61
2024/02/05 01:12:17;;;;;;;;;;;;;;;19.40;45.73;100293.75;2083321;28;2406;-60
2024/02/05 01:13:19;;;;;;;;;;;;;;;19.41;45.73;100295.25;2082093;28;2122;-61
2024/02/05 01:14:20;;;;;;;;;;;;;;;19.40;45.66;100279.41;2081373;28;2202;-61
2024/02/05 01:15:22;;;;;;;;;;;;;;;19.39;45.62;100287.28;2080933;28;2434;-61
2024/02/05 01:16:23;;;;;;;;;;;;;;;19.39;45.74;100289.41;2083303;28;2395;-61
2024/02/05 01:17:24;;;;;;;;;;;;;;;19.40;45.70;100288.00;2084197;28;2355;-61
2024/02/05 01:18:26;;;;;;;;;;;;;;;19.39;45.73;100286.56;2081411;28;2114;-61
2024/02/05 01:19:27;;;;;;;;;;;;;;;19.40;45.76;100288.00;2083574;28;2515;-61
2024/02/05 01:20:29;;;;;;;;;;;;;;;19.39;45.81;100287.28;2084322;28;2237;-61
2024/02/05 01:21:30;;;;;;;;;;;;;;;19.38;45.77;100285.81;2084406;28;2353;-61
2024/02/05 01:22:32;;;;;;;;;;;;;;;19.39;45.79;100289.41;2080259;28;2232;-61
2024/02/05 01:23:34;;;;;;;;;;;;;;;19.38;45.77;100287.97;2081510;28;2404;-60
2024/02/05 01:24:35;;;;;;;;;;;;;;;19.39;45.80;100289.41;2083349;28;2118;-61
2024/02/05 01:25:37;;;;;;;;;;;;;;;19.38;45.83;100290.81;2081449;28;2165;-61
2024/02/05 01:30:38;;;;;;;;;;;;;;;19.37;46.10;100300.81;2058379;28;2286;-62
2024/02/05 01:31:43;;;;;;;;;;;;;;;19.37;45.89;100280.72;2058965;28;2110;-62
2024/02/05 01:32:45;;;;;;;;;;;;;;;19.38;45.86;100291.56;2056109;28;2375;-62
2024/02/05 01:33:46;;;;;;;;;;;;;;;19.38;45.86;100291.56;2054972;28;2414;-62
2024/02/05 01:34:48;;;;;;;;;;;;;;;19.37;45.83;100290.06;2056313;28;2359;-62
2024/02/05 01:35:50;;;;;;;;;;;;;;;19.37;45.91;100283.59;2067375;28;2123;-62
2024/02/05 01:36:52;;;;;;;;;;;;;;;19.37;45.75;100295.06;2071179;28;1693;-62
2024/02/05 01:37:53;;;;;;;;;;;;;;;19.36;45.91;100285.72;2064758;28;2186;-62
2024/02/05 01:38:55;;;;;;;;;;;;;;;19.36;45.85;100282.84;2064749;28;2131;-62
2024/02/05 01:39:56;;;;;;;;;;;;;;;19.37;45.80;100283.59;2066412;28;2107;-62
2024/02/05 01:40:57;;;;;;;;;;;;;;;19.36;45.90;100285.72;2072206;28;1868;-62
2024/02/05 01:41:59;;;;;;;;;;;;;;;19.36;45.93;100282.13;2067974;28;2060;-62
2024/02/05 01:43:01;;;;;;;;;;;;;;;19.37;45.87;100289.34;2065198;28;2711;-62
2024/02/05 01:44:02;;;;;;;;;;;;;;;19.36;45.92;100291.47;2063952;28;2146;-61
2024/02/05 01:45:04;;;;;;;;;;;;;;;19.35;45.96;100289.97;2061018;28;2179;-61
2024/02/05 01:46:06;;;;;;;;;;;;;;;19.36;45.83;100287.88;2064810;28;2600;-62
2024/02/05 01:47:08;;;;;;;;;;;;;;;19.36;45.89;100282.13;2066549;28;2220;-66
2024/02/05 01:48:09;;;;;;;;;;;;;;;19.36;45.93;100282.13;2064444;28;2313;-66
2024/02/05 01:49:12;;;;;;;;;;;;;;;19.35;45.90;100289.97;2063277;28;2332;-66
2024/02/05 01:50:14;;;;;;;;;;;;;;;19.35;45.98;100292.13;2063625;28;2183;-66
2024/02/05 01:51:16;;;;;;;;;;;;;;;19.35;45.93;100297.84;2064385;28;2150;-66
2024/02/05 01:52:19;;;;;;;;;;;;;;;19.34;45.85;100297.13;2064921;28;2165;-65
2024/02/05 01:53:21;;;;;;;;;;;;;;;19.34;45.96;100291.38;2063995;28;2174;-66
2024/02/05 01:54:24;;;;;;;;;;;;;;;19.34;45.88;100302.13;2064311;28;2146;-66
2024/02/05 01:55:26;;;;;;;;;;;;;;;19.34;46.04;100290.66;2070298;28;2129;-66
2024/02/05 01:56:30;;;;;;;;;;;;;;;19.33;45.94;100289.16;2070473;28;2060;-66
2024/02/05 01:57:32;;;;;;;;;;;;;;;19.34;45.92;100302.13;2062637;28;2087;-66
2024/02/05 01:58:34;;;;;;;;;;;;;;;19.33;46.03;100309.25;2063353;28;2159;-66
2024/02/05 01:59:36;;;;;;;;;;;;;;;19.33;46.08;100306.38;2062774;28;2166;-66
2024/02/05 02:00:37;;;;;;;;;;;;;;;19.33;46.02;100297.78;2063582;28;2095;-66
2024/02/05 02:01:40;;;;;;;;;;;;;;;19.33;46.04;100295.63;2063945;28;2099;-66
2024/02/05 02:02:42;;;;;;;;;;;;;;;19.34;45.96;100302.13;2066499;28;2083;-66
2024/02/05 02:03:43;;;;;;;;;;;;;;;19.33;46.00;100300.66;2071831;28;1781;-65
2024/02/05 02:04:45;;;;;;;;;;;;;;;19.33;46.08;100306.38;2066007;28;2303;-66
2024/02/05 02:05:47;;;;;;;;;;;;;;;19.33;46.07;100295.63;2069087;28;2121;-65
2024/02/05 02:06:49;;;;;;;;;;;;;;;19.33;46.05;100300.66;2066849;28;2123;-66
2024/02/05 02:07:51;;;;;;;;;;;;;;;19.33;46.08;100304.25;2063917;28;2099;-66
2024/02/05 02:08:53;;;;;;;;;;;;;;;19.32;46.11;100317.13;2064205;28;2182;-66
2024/02/05 02:09:55;;;;;;;;;;;;;;;19.33;46.11;100309.25;2067151;28;2239;-66
2024/02/05 02:10:56;;;;;;;;;;;;;;;19.32;46.03;100304.91;2064834;28;2236;-66
2024/02/05 02:11:58;;;;;;;;;;;;;;;19.32;46.04;100302.03;2064667;28;2100;-66
2024/02/05 02:12:59;;;;;;;;;;;;;;;19.31;46.04;100292.69;2063120;28;2275;-66
2024/02/05 02:14:00;;;;;;;;;;;;;;;19.31;46.07;100292.69;2064342;28;2196;-66
2024/02/05 02:15:03;;;;;;;;;;;;;;;19.32;46.05;100302.03;2062604;28;2134;-66
2024/02/05 02:16:06;;;;;;;;;;;;;;;19.32;46.08;100299.19;2066146;28;2166;-66
2024/02/05 02:17:07;;;;;;;;;;;;;;;19.33;46.12;100294.91;2064267;28;2316;-66
2024/02/05 02:18:10;;;;;;;;;;;;;;;19.31;46.07;100303.44;2064523;28;2191;-66
2024/02/05 02:19:21;;;;;;;;;;;;;;;19.31;46.05;100309.16;2064050;28;2611;-66
2024/02/05 02:20:24;;;;;;;;;;;;;;;19.31;46.16;100309.94;2070645;28;1617;-66
2024/02/05 02:21:25;;;;;;;;;;;;;;;19.31;46.08;100304.19;2069836;28;1634;-65
2024/02/05 02:22:35;;;;;;;;;;;;;;;19.31;46.11;100303.44;2069387;28;1800;-66
2024/02/05 02:23:37;;;;;;;;;;;;;;;19.31;46.10;100309.94;2071830;28;2153;-66
2024/02/05 02:24:38;;;;;;;;;;;;;;;19.30;46.21;100301.97;2070274;28;1675;-67
2024/02/05 02:25:40;;;;;;;;;;;;;;;19.31;45.97;100291.94;2064919;28;2128;-66
2024/02/05 02:26:41;;;;;;;;;;;;;;;19.30;46.13;100296.22;2059834;28;2291;-65
2024/02/05 02:27:43;;;;;;;;;;;;;;;19.31;46.14;100297.69;2061322;28;2506;-66
2024/02/05 02:28:44;;;;;;;;;;;;;;;19.30;46.16;100296.22;2059646;28;2288;-67
2024/02/05 02:29:46;;;;;;;;;;;;;;;19.31;46.10;100297.69;2061171;28;2115;-66
2024/02/05 02:30:49;;;;;;;;;;;;;;;19.30;46.23;100293.34;2058863;28;2444;-66
2024/02/05 02:31:55;;;;;;;;;;;;;;;19.31;46.18;100297.69;2060629;28;2363;-66
2024/02/05 02:33:05;;;;;;;;;;;;;;;19.30;46.14;100290.47;2059926;28;2452;-66
2024/02/05 02:34:11;;;;;;;;;;;;;;;19.28;46.28;100299.72;2061786;28;2370;-66
2024/02/05 02:35:21;;;;;;;;;;;;;;;19.30;46.13;100299.09;2065841;28;2172;-66
2024/02/05 02:36:26;;;;;;;;;;;;;;;19.29;46.19;100294.72;2063832;28;2430;-66
2024/02/05 02:37:30;;;;;;;;;;;;;;;19.29;46.20;100309.06;2060044;28;2115;-66
2024/02/05 02:38:47;;;;;;;;;;;;;;;19.29;46.27;100306.22;2060852;28;2546;-66
2024/02/05 02:39:55;;;;;;;;;;;;;;;19.28;46.23;100299.00;2063868;28;2382;-66
2024/02/05 02:41:01;;;;;;;;;;;;;;;19.27;46.16;100306.16;2062979;28;2497;-66
2024/02/05 02:42:04;;;;;;;;;;;;;;;19.29;46.22;100306.22;2062620;28;2153;-65
2024/02/05 02:43:06;;;;;;;;;;;;;;;19.27;46.42;100301.13;2063235;28;2225;-65
2024/02/05 02:44:08;;;;;;;;;;;;;;;19.27;46.20;100309.75;2061860;28;2577;-66
2024/02/05 02:45:11;;;;;;;;;;;;;;;19.28;46.19;100304.75;2063944;28;2139;-65
2024/02/05 02:46:12;;;;;;;;;;;;;;;19.29;46.24;100303.34;2061899;28;2111;-66
2024/02/05 02:47:13;;;;;;;;;;;;;;;19.28;46.28;100296.88;2063114;28;2388;-66
2024/02/05 02:48:15;;;;;;;;;;;;;;;19.27;46.20;100303.28;2063542;28;2425;-66
2024/02/05 02:49:16;;;;;;;;;;;;;;;19.28;46.19;100307.63;2064110;28;2150;-66
2024/02/05 02:50:18;;;;;;;;;;;;;;;19.27;46.21;100291.78;2062368;28;2327;-66
2024/02/05 02:51:19;;;;;;;;;;;;;;;19.27;46.28;100294.66;2063638;28;2126;-66
2024/02/05 02:52:21;;;;;;;;;;;;;;;19.27;46.34;100297.53;2062417;28;2374;-66
2024/02/05 02:53:22;;;;;;;;;;;;;;;19.27;46.28;100297.53;2063540;28;2123;-66
2024/02/05 02:54:24;;;;;;;;;;;;;;;19.26;46.29;100291.03;2064017;28;2259;-66
2024/02/05 02:55:25;;;;;;;;;;;;;;;19.26;46.33;100302.50;2063122;28;2144;-66
2024/02/05 02:56:26;;;;;;;;;;;;;;;19.25;46.33;100301.78;2064111;28;2265;-66
2024/02/05 02:57:28;;;;;;;;;;;;;;;19.25;46.21;100296.03;2063154;28;2370;-66
2024/02/05 02:58:29;;;;;;;;;;;;;;;19.24;46.29;100300.31;2057948;28;3052;-66
2024/02/05 02:59:31;;;;;;;;;;;;;;;19.26;46.27;100305.38;2060857;28;2130;-66
2024/02/05 03:00:32;;;;;;;;;;;;;;;19.24;46.38;100300.31;2063802;28;2213;-66
2024/02/05 03:01:34;;;;;;;;;;;;;;;19.24;46.40;100308.94;2063212;28;2375;-66
2024/02/05 03:02:35;;;;;;;;;;;;;;;19.24;46.30;100306.06;2061516;28;2269;-66
2024/02/05 03:03:37;;;;;;;;;;;;;;;19.24;46.25;100299.56;2064988;28;2215;-66
2024/02/05 03:04:38;;;;;;;;;;;;;;;19.23;46.33;100310.31;2062747;28;2367;-65
2024/02/05 03:05:40;;;;;;;;;;;;;;;19.24;46.33;100306.06;2062234;28;2214;-66
2024/02/05 03:06:41;;;;;;;;;;;;;;;19.24;46.24;100311.81;2062252;28;2212;-66
2024/02/05 03:07:42;;;;;;;;;;;;;;;19.24;46.31;100311.81;2063323;28;2192;-66
2024/02/05 03:08:44;;;;;;;;;;;;;;;19.24;46.28;100311.81;2061577;28;2390;-66
2024/02/05 03:09:45;;;;;;;;;;;;;;;19.23;46.32;100316.03;2062385;28;2224;-65
2024/02/05 03:10:47;;;;;;;;;;;;;;;19.23;46.35;100318.91;2061180;28;2390;-66
2024/02/05 03:11:48;;;;;;;;;;;;;;;19.23;46.33;100316.03;2061630;28;2397;-67
2024/02/05 03:12:50;;;;;;;;;;;;;;;19.24;46.36;100308.94;2061287;28;2115;-66
2024/02/05 03:13:51;;;;;;;;;;;;;;;19.23;46.32;100306.69;2063642;28;2182;-67
2024/02/05 03:14:53;;;;;;;;;;;;;;;19.24;46.33;100316.78;2062723;28;2114;-67
2024/02/05 03:15:54;;;;;;;;;;;;;;;19.23;46.34;100310.31;2063459;28;2137;-66
2024/02/05 03:16:56;;;;;;;;;;;;;;;19.22;46.29;100314.59;2063653;28;2229;-66
2024/02/05 03:17:58;;;;;;;;;;;;;;;19.23;46.28;100313.19;2061671;28;2301;-66
2024/02/05 03:18:59;;;;;;;;;;;;;;;19.23;46.28;100310.31;2064629;28;2293;-66
2024/02/05 03:20:01;;;;;;;;;;;;;;;19.22;46.28;100313.84;2062846;28;2228;-66
2024/02/05 03:21:02;;;;;;;;;;;;;;;19.23;46.42;100321.78;2067297;28;2053;-65
2024/02/05 03:22:04;;;;;;;;;;;;;;;19.21;46.11;100318.81;2064313;28;2099;-66
2024/02/05 03:23:06;;;;;;;;;;;;;;;19.23;46.35;100313.19;2064512;28;1966;-66
2024/02/05 03:24:11;;;;;;;;;;;;;;;19.22;46.37;100311.72;2063916;28;2189;-66
2024/02/05 03:25:12;;;;;;;;;;;;;;;19.21;46.32;100321.69;2062178;28;2285;-66
2024/02/05 03:26:14;;;;;;;;;;;;;;;19.22;46.36;100317.44;2063073;28;2213;-67
2024/02/05 03:27:15;;;;;;;;;;;;;;;19.21;46.42;100323.84;2062518;28;2053;-66
2024/02/05 03:28:17;;;;;;;;;;;;;;;19.21;46.37;100321.69;2062851;28;1969;-66
2024/02/05 03:29:18;;;;;;;;;;;;;;;19.22;46.42;100331.81;2060772;28;2241;-66
2024/02/05 03:30:20;;;;;;;;;;;;;;;19.20;46.41;100328.84;2059520;28;2024;-66
2024/02/05 03:31:21;;;;;;;;;;;;;;;19.21;46.43;100321.69;2062051;28;2113;-66
2024/02/05 03:32:23;;;;;;;;;;;;;;;19.21;46.38;100318.81;2063373;28;2256;-66
2024/02/05 03:33:24;;;;;;;;;;;;;;;19.21;46.42;100324.56;2063332;28;2561;-66
2024/02/05 03:34:26;;;;;;;;;;;;;;;19.20;46.47;100320.22;2062876;28;2269;-66
2024/02/05 03:35:28;;;;;;;;;;;;;;;19.20;46.37;100328.84;2065258;28;1989;-66
2024/02/05 03:36:29;;;;;;;;;;;;;;;19.20;46.39;100334.59;2060950;28;2217;-66
2024/02/05 03:37:31;;;;;;;;;;;;;;;19.20;46.44;100334.59;2061749;28;2167;-66
2024/02/05 03:38:32;;;;;;;;;;;;;;;19.20;46.39;100346.06;2061183;28;2027;-66
2024/02/05 03:39:34;;;;;;;;;;;;;;;19.20;46.39;100345.34;2063324;28;2295;-66
2024/02/05 03:40:36;;;;;;;;;;;;;;;19.20;46.38;100337.44;2066171;28;2328;-66
2024/02/05 03:41:37;;;;;;;;;;;;;;;19.20;46.40;100340.31;2065911;28;2317;-66
2024/02/05 03:42:38;;;;;;;;;;;;;;;19.20;46.47;100334.59;2062266;28;2026;-66
2024/02/05 03:43:40;;;;;;;;;;;;;;;19.20;46.47;100339.59;2061897;28;2244;-66
2024/02/05 03:44:41;;;;;;;;;;;;;;;19.21;46.49;100338.19;2063563;28;2094;-66
2024/02/05 03:45:42;;;;;;;;;;;;;;;19.20;46.41;100334.59;2058576;28;2206;-65
2024/02/05 03:46:44;;;;;;;;;;;;;;;19.20;46.33;100334.59;2062040;28;2198;-66
2024/02/05 03:47:46;;;;;;;;;;;;;;;19.20;46.42;100334.59;2064353;28;2158;-67
2024/02/05 03:48:54;;;;;;;;;;;;;;;19.20;46.37;100337.44;2063303;28;1974;-66
2024/02/05 03:49:56;;;;;;;;;;;;;;;19.21;46.33;100338.91;2063200;28;2296;-66
2024/02/05 03:50:57;;;;;;;;;;;;;;;19.22;46.40;100343.28;2062986;28;1996;-65
2024/02/05 03:51:58;;;;;;;;;;;;;;;19.21;46.32;100341.78;2063293;28;2086;-66
2024/02/05 03:53:00;;;;;;;;;;;;;;;19.23;46.33;100344.75;2068423;28;1944;-66
2024/02/05 03:54:04;;;;;;;;;;;;;;;19.23;46.31;100344.75;2066577;28;1885;-66
2024/02/05 03:55:06;;;;;;;;;;;;;;;19.24;46.23;100334.75;2066467;28;1721;-66
2024/02/05 03:56:09;;;;;;;;;;;;;;;19.25;46.09;100339.09;2065702;28;2051;-66
2024/02/05 03:57:10;;;;;;;;;;;;;;;19.26;46.17;100342.69;2066512;28;1685;-66
2024/02/05 03:58:12;;;;;;;;;;;;;;;19.27;46.08;100337.72;2069754;28;1978;-66
2024/02/05 03:59:13;;;;;;;;;;;;;;;19.28;46.00;100344.94;2068930;28;1943;-66
2024/02/05 04:00:20;;;;;;;;;;;;;;;19.29;46.01;100349.25;2066218;28;1992;-66
2024/02/05 04:01:21;;;;;;;;;;;;;;;19.30;45.83;100342.16;2059972;28;2300;-66
2024/02/05 04:02:24;;;;;;;;;;;;;;;19.30;45.95;100347.88;2062911;28;2090;-66
2024/02/05 04:03:26;;;;;;;;;;;;;;;19.30;45.96;100345.75;2064555;28;2041;-66
2024/02/05 04:04:27;;;;;;;;;;;;;;;19.31;45.90;100344.38;2060189;28;2320;-66
2024/02/05 04:05:31;;;;;;;;;;;;;;;19.31;45.91;100350.13;2060852;28;1989;-66
2024/02/05 04:06:33;;;;;;;;;;;;;;;19.32;45.86;100351.59;2061402;28;2004;-66
2024/02/05 04:07:35;;;;;;;;;;;;;;;19.33;45.80;100349.44;2063305;28;2104;-66
2024/02/05 04:08:36;;;;;;;;;;;;;;;19.33;45.91;100341.56;2062355;28;2426;-66
2024/02/05 04:09:37;;;;;;;;;;;;;;;19.33;46.02;100346.56;2064063;28;2006;-66
2024/02/05 04:10:39;;;;;;;;;;;;;;;19.33;46.05;100352.31;2065706;28;2096;-66
2024/02/05 04:11:40;;;;;;;;;;;;;;;19.32;45.88;100345.09;2062038;28;2259;-66
2024/02/05 04:12:42;;;;;;;;;;;;;;;19.34;45.96;100354.53;2062786;28;2109;-66
2024/02/05 04:13:43;;;;;;;;;;;;;;;19.33;45.92;100355.19;2063093;28;2036;-67
2024/02/05 04:14:45;;;;;;;;;;;;;;;19.32;45.84;100350.84;2061783;28;2066;-67
2024/02/05 04:15:46;;;;;;;;;;;;;;;19.33;45.92;100369.53;2060076;28;2299;-67
2024/02/05 04:16:48;;;;;;;;;;;;;;;19.33;45.84;100370.28;2061679;28;2090;-66
2024/02/05 04:17:49;;;;;;;;;;;;;;;19.33;45.92;100358.06;2062846;28;2087;-66
2024/02/05 04:18:51;;;;;;;;;;;;;;;19.33;45.89;100363.81;2062739;28;2453;-66
2024/02/05 04:19:52;;;;;;;;;;;;;;;19.33;45.85;100378.88;2063890;28;2039;-66
2024/02/05 04:20:56;;;;;;;;;;;;;;;19.32;45.88;100368.81;2061284;28;1993;-66
2024/02/05 04:21:58;;;;;;;;;;;;;;;19.33;45.78;100369.53;2061802;28;2058;-67
2024/02/05 04:22:59;;;;;;;;;;;;;;;19.32;45.88;100357.31;2059764;28;2254;-66
2024/02/05 04:24:05;;;;;;;;;;;;;;;19.32;45.77;100368.06;2060307;28;2078;-67
2024/02/05 04:25:08;;;;;;;;;;;;;;;19.32;45.85;100368.81;2058065;28;2185;-67
2024/02/05 04:26:13;;;;;;;;;;;;;;;19.33;45.85;100375.28;2062800;28;2137;-66
2024/02/05 04:27:15;;;;;;;;;;;;;;;19.32;45.79;100373.81;2064340;28;2341;-67
2024/02/05 04:28:16;;;;;;;;;;;;;;;19.33;45.79;100386.75;2061991;28;2248;-67
2024/02/05 04:29:20;;;;;;;;;;;;;;;19.33;45.83;100376.00;2062685;28;2217;-66
2024/02/05 04:30:26;;;;;;;;;;;;;;;19.34;45.78;100382.50;2061642;28;2241;-66
2024/02/05 04:31:28;;;;;;;;;;;;;;;19.34;45.84;100382.50;2060949;28;2016;-67
2024/02/05 04:32:31;;;;;;;;;;;;;;;19.35;45.87;100381.84;2060182;28;2260;-67
2024/02/05 04:33:32;;;;;;;;;;;;;;;19.35;45.87;100381.13;2061529;28;2280;-67
2024/02/05 04:34:34;;;;;;;;;;;;;;;19.35;45.95;100378.25;2064478;28;2593;-66
2024/02/05 04:35:35;;;;;;;;;;;;;;;19.37;45.91;100381.19;2061089;28;2462;-67
2024/02/05 04:36:37;;;;;;;;;;;;;;;19.35;45.87;100378.97;2063169;28;2250;-67
2024/02/05 04:37:38;;;;;;;;;;;;;;;19.37;45.85;100366.84;2067301;28;2137;-67
2024/02/05 04:38:40;;;;;;;;;;;;;;;19.37;45.85;100375.47;2066280;28;2180;-66
2024/02/05 04:39:41;;;;;;;;;;;;;;;19.39;45.86;100369.81;2068750;28;1927;-66
2024/02/05 04:40:42;;;;;;;;;;;;;;;19.37;45.87;100366.84;2065971;28;1602;-66
2024/02/05 04:41:44;;;;;;;;;;;;;;;19.38;45.94;100369.06;2065354;28;2022;-67
2024/02/05 04:42:45;;;;;;;;;;;;;;;19.40;45.99;100385.63;2066472;28;2024;-66
2024/02/05 04:43:46;;;;;;;;;;;;;;;19.40;46.27;100368.41;2069492;28;1713;-66
2024/02/05 04:44:48;;;;;;;;;;;;;;;19.40;46.25;100374.91;2066316;28;2598;-66
2024/02/05 04:45:49;;;;;;;;;;;;;;;19.40;46.17;100379.88;2061933;28;2226;-66
2024/02/05 04:46:50;;;;;;;;;;;;;;;19.39;46.11;100379.16;2061138;28;2557;-66
2024/02/05 04:47:52;;;;;;;;;;;;;;;19.39;46.00;100387.78;2068724;28;1981;-66
2024/02/05 04:48:53;;;;;;;;;;;;;;;19.40;45.96;100383.53;2069863;28;1678;-66
2024/02/05 04:49:55;;;;;;;;;;;;;;;19.39;45.94;100378.41;2067381;28;2054;-66
2024/02/05 04:50:56;;;;;;;;;;;;;;;19.40;45.90;100379.88;2068320;28;2038;-66
2024/02/05 04:51:58;;;;;;;;;;;;;;;19.40;46.00;100385.63;2066087;28;2032;-67
2024/02/05 04:53:00;;;;;;;;;;;;;;;19.40;45.97;100385.63;2064094;28;1704;-66
2024/02/05 04:54:02;;;;;;;;;;;;;;;19.39;45.96;100381.28;2069367;28;1704;-66
2024/02/05 04:55:04;;;;;;;;;;;;;;;19.40;45.85;100388.50;2063429;28;2525;-66
2024/02/05 04:56:06;;;;;;;;;;;;;;;19.39;45.79;100372.69;2062464;28;2466;-66
2024/02/05 04:57:07;;;;;;;;;;;;;;;19.39;45.84;100378.41;2063807;28;2154;-66
2024/02/05 04:58:09;;;;;;;;;;;;;;;19.37;45.95;100381.94;2061923;28;2490;-66
2024/02/05 04:59:10;;;;;;;;;;;;;;;19.38;45.89;100383.44;2066655;28;2509;-66
2024/02/05 05:00:12;;;;;;;;;;;;;;;19.38;45.91;100389.16;2063284;28;2512;-66
2024/02/05 05:01:13;;;;;;;;;;;;;;;19.38;45.92;100399.94;2063105;28;2327;-67
2024/02/05 05:02:15;;;;;;;;;;;;;;;19.37;45.89;100404.91;2062720;28;2411;-66
2024/02/05 05:03:16;;;;;;;;;;;;;;;19.37;45.92;100381.19;2062696;28;2123;-67
2024/02/05 05:04:18;;;;;;;;;;;;;;;19.37;45.93;100384.06;2062053;28;2344;-66
2024/02/05 05:05:19;;;;;;;;;;;;;;;19.37;45.81;100386.94;2064641;28;2438;-67
2024/02/05 05:06:20;;;;;;;;;;;;;;;19.37;45.84;100398.44;2067266;28;1875;-66
2024/02/05 05:07:23;;;;;;;;;;;;;;;19.39;45.86;100395.66;2061491;28;2243;-66
2024/02/05 05:08:24;;;;;;;;;;;;;;;19.38;45.93;100394.91;2060342;28;2573;-66
2024/02/05 05:09:26;;;;;;;;;;;;;;;19.38;45.81;100394.91;2067346;28;2131;-67
2024/02/05 05:10:27;;;;;;;;;;;;;;;19.38;45.88;100391.31;2066309;28;1859;-67
2024/02/05 05:11:29;;;;;;;;;;;;;;;19.39;45.88;100387.03;2069268;28;1906;-67
2024/02/05 05:12:30;;;;;;;;;;;;;;;19.39;45.89;100384.16;2065781;28;2059;-67
2024/02/05 05:13:31;;;;;;;;;;;;;;;19.39;45.84;100384.91;2068981;28;1924;-66
2024/02/05 05:14:33;;;;;;;;;;;;;;;19.40;45.87;100382.75;2066171;28;2075;-67
2024/02/05 05:15:34;;;;;;;;;;;;;;;19.39;45.80;100384.91;2062716;28;2223;-67
2024/02/05 05:16:38;;;;;;;;;;;;;;;19.39;46.13;100384.91;2061846;28;2126;-66
2024/02/05 05:17:40;;;;;;;;;;;;;;;19.39;45.87;100379.16;2062305;28;2170;-66
2024/02/05 05:18:41;;;;;;;;;;;;;;;19.42;45.94;100379.97;2060283;28;2478;-67
2024/02/05 05:19:43;;;;;;;;;;;;;;;19.42;46.14;100377.88;2061835;28;2525;-66
2024/02/05 05:20:44;;;;;;;;;;;;;;;19.42;45.99;100377.88;2062469;28;2360;-68
2024/02/05 05:21:46;;;;;;;;;;;;;;;19.43;45.93;100381.47;2063534;28;2340;-66
2024/02/05 05:22:48;;;;;;;;;;;;;;;19.43;45.91;100387.94;2063386;28;2382;-66
2024/02/05 05:23:49;;;;;;;;;;;;;;;19.44;45.98;100374.31;2065066;28;2212;-67
2024/02/05 05:24:50;;;;;;;;;;;;;;;19.43;45.97;100382.22;2062762;28;2370;-67
2024/02/05 05:25:52;;;;;;;;;;;;;;;19.44;46.17;100385.81;2063709;28;2413;-66
2024/02/05 05:26:53;;;;;;;;;;;;;;;19.44;46.06;100391.56;2066486;28;2368;-67